Time;durP1;ratioP1;P1;durP2;ratioP2;P2;SDS_P1;SDS_P2;PMS_P1;PMS_P2;Temp;Humidity;BMP_temperature;BMP_pressure;BME280_temperature;BME280_humidity;BME280_pressure;Samples;Min_cycle;Max_cycle;Signal;HPM_P1;HPM_P2
2023/09/17 00:02:21;;;;;;;25.10;6.65;;;;;;;14.38;100.00;100829.91;4990022;28;20505;-44
2023/09/17 00:04:49;;;;;;;28.08;6.10;;;;;;;14.37;100.00;100833.09;4990703;28;20054;-44
2023/09/17 00:07:17;;;;;;;24.60;9.50;;;;;;;14.38;100.00;100831.88;4989641;28;20062;-44
2023/09/17 00:09:44;;;;;;;29.42;9.40;;;;;;;14.39;100.00;100830.72;4991464;28;20133;-43
2023/09/17 00:12:11;;;;;;;30.20;10.98;;;;;;;14.37;100.00;100827.50;4984047;28;20128;-43
2023/09/17 00:14:39;;;;;;;25.30;10.75;;;;;;;14.36;100.00;100835.06;4990386;28;20034;-43
2023/09/17 00:17:06;;;;;;;35.15;13.07;;;;;;;14.35;100.00;100821.50;4989243;28;20141;-54
2023/09/17 00:19:33;;;;;;;33.13;13.35;;;;;;;14.34;100.00;100822.69;4990754;28;20081;-45
2023/09/17 00:22:02;;;;;;;27.23;13.48;;;;;;;14.32;100.00;100813.88;4991165;28;20137;-44
2023/09/17 00:24:30;;;;;;;28.40;12.15;;;;;;;14.30;100.00;100817.00;5000874;28;20105;-44
2023/09/17 00:26:57;;;;;;;30.70;13.02;;;;;;;14.30;100.00;100822.56;4989418;28;20108;-44
2023/09/17 00:29:25;;;;;;;26.10;13.10;;;;;;;14.30;100.00;100822.56;4991125;28;20046;-44
2023/09/17 00:31:52;;;;;;;32.13;13.65;;;;;;;14.29;100.00;100820.16;4986980;28;20101;-46
2023/09/17 00:34:19;;;;;;;32.17;12.82;;;;;;;14.28;100.00;100816.56;4991279;28;20046;-44
2023/09/17 00:36:47;;;;;;;33.35;12.10;;;;;;;14.29;100.00;100814.59;4989751;28;20043;-44
2023/09/17 00:39:14;;;;;;;28.65;14.02;;;;;;;14.28;100.00;100808.22;4987754;28;20050;-47
2023/09/17 00:41:41;;;;;;;25.95;12.70;;;;;;;14.28;100.00;100812.97;4987801;28;20210;-46
2023/09/17 00:44:08;;;;;;;26.98;12.68;;;;;;;14.29;100.00;100803.44;4990684;28;20038;-43
2023/09/17 00:46:36;;;;;;;29.88;12.43;;;;;;;14.27;100.00;100798.22;4986942;28;20051;-43
2023/09/17 00:49:12;;;;;;;28.17;12.90;;;;;;;14.28;100.00;100801.81;4991507;28;20042;-44
2023/09/17 00:51:41;;;;;;;19.90;12.45;;;;;;;14.27;100.00;100800.22;4989376;28;20050;-44
2023/09/17 00:54:10;;;;;;;25.33;13.80;;;;;;;14.26;100.00;100798.63;4991152;28;20521;-44
2023/09/17 00:56:37;;;;;;;24.52;13.45;;;;;;;14.25;100.00;100789.44;4991208;28;20129;-44
2023/09/17 00:59:08;;;;;;;30.60;12.38;;;;;;;14.26;100.00;100790.25;4992139;28;20038;-44
2023/09/17 01:01:35;;;;;;;29.25;13.15;;;;;;;14.25;100.00;100789.44;4991169;28;20054;-44
2023/09/17 01:04:04;;;;;;;31.52;14.63;;;;;;;14.25;100.00;100781.09;4994556;28;20069;-52
2023/09/17 01:06:31;;;;;;;31.50;14.05;;;;;;;14.25;100.00;100781.09;4994749;28;20045;-43
2023/09/17 01:09:00;;;;;;;24.50;13.10;;;;;;;14.25;100.00;100791.41;4993827;28;20090;-44
2023/09/17 01:11:28;;;;;;;24.35;13.23;;;;;;;14.26;100.00;100781.91;4994943;28;20137;-44
2023/09/17 01:14:15;;;;;;;25.58;12.13;;;;;;;14.27;100.00;100781.53;4994517;28;20153;-44
2023/09/17 01:16:47;;;;;;;27.00;12.85;;;;;;;14.27;100.00;100777.97;4994274;28;20440;-45
2023/09/17 01:19:29;;;;;;;26.77;12.20;;;;;;;14.27;100.00;100766.81;4986226;28;20556;-43
2023/09/17 01:22:11;;;;;;;21.15;11.32;;;;;;;14.27;100.00;100762.03;4993813;28;20077;-45
2023/09/17 01:25:23;;;;;;;20.08;9.93;;;;;;;14.29;100.00;100758.91;4994312;28;20045;-46
2023/09/17 01:27:51;;;;;;;13.90;9.45;;;;;;;14.28;100.00;100757.28;4948626;28;20144;-44
2023/09/17 01:30:21;;;;;;;17.30;7.90;;;;;;;14.28;100.00;100755.28;4984048;28;20085;-47
2023/09/17 01:32:48;;;;;;;14.07;8.15;;;;;;;14.27;100.00;100762.03;4993955;28;20074;-45
2023/09/17 01:35:17;;;;;;;12.05;7.43;;;;;;;14.27;100.00;100761.25;4993943;28;20532;-44
2023/09/17 01:37:54;;;;;;;14.13;7.15;;;;;;;14.26;100.00;100754.88;4994070;28;20149;-44
2023/09/17 01:40:23;;;;;;;11.05;7.30;;;;;;;14.26;100.00;100759.63;4994232;28;20050;-47
2023/09/17 01:42:51;;;;;;;13.15;7.55;;;;;;;14.24;100.00;100748.06;4989809;28;20058;-46
2023/09/17 01:45:21;;;;;;;14.63;8.63;;;;;;;14.23;100.00;100758.38;4981348;28;20460;-46
2023/09/17 01:47:49;;;;;;;16.20;7.70;;;;;;;14.24;100.00;100745.28;4996645;28;20050;-44
2023/09/17 01:50:17;;;;;;;13.18;7.53;;;;;;;14.23;100.00;100749.22;4975955;28;20106;-45
2023/09/17 01:52:45;;;;;;;14.38;7.80;;;;;;;14.21;100.00;100740.44;4988267;28;20405;-44
2023/09/17 01:55:13;;;;;;;19.52;9.00;;;;;;;14.21;100.00;100746.81;4978588;28;20046;-44
2023/09/17 01:57:42;;;;;;;17.00;9.30;;;;;;;14.21;100.00;100740.44;4988460;28;20057;-45
2023/09/17 02:00:16;;;;;;;19.05;9.88;;;;;;;14.21;100.00;100729.31;4993451;28;20108;-45
2023/09/17 02:02:47;;;;;;;20.52;11.38;;;;;;;14.21;100.00;100729.31;4993836;28;20381;-44
2023/09/17 02:05:16;;;;;;;16.10;9.77;;;;;;;14.20;100.00;100724.91;4993583;28;20448;-45
2023/09/17 02:07:44;;;;;;;16.05;9.88;;;;;;;14.20;100.00;100722.13;4990070;28;20061;-44
2023/09/17 02:10:13;;;;;;;23.42;12.73;;;;;;;14.20;100.00;100727.69;4984744;28;20132;-44
2023/09/17 02:12:41;;;;;;;24.98;10.07;;;;;;;14.19;100.00;100717.75;4993161;28;20050;-45
2023/09/17 02:15:11;;;;;;;19.60;9.85;;;;;;;14.21;100.00;100718.16;4993267;28;20078;-46
2023/09/17 02:17:39;;;;;;;24.50;13.70;;;;;;;14.20;100.00;100708.19;4993199;28;20475;-44
2023/09/17 02:20:11;;;;;;;23.48;13.35;;;;;;;14.20;100.00;100716.53;4997942;28;20049;-43
2023/09/17 02:22:39;;;;;;;28.02;14.18;;;;;;;14.20;100.00;100710.97;4993248;28;20097;-45
2023/09/17 02:25:07;;;;;;;30.13;14.75;;;;;;;14.19;100.00;100712.16;4993279;28;20089;-44
2023/09/17 02:27:34;;;;;;;26.55;13.88;;;;;;;14.19;100.00;100709.38;4992549;28;20042;-44
2023/09/17 02:30:04;;;;;;;39.50;17.45;;;;;;;14.20;100.00;100705.41;4987146;28;20129;-45
2023/09/17 02:32:31;;;;;;;34.17;16.90;;;;;;;14.20;100.00;100713.75;4991861;28;20046;-53
2023/09/17 02:35:00;;;;;;;29.05;14.48;;;;;;;14.20;100.00;100708.19;4981713;28;20057;-45
2023/09/17 02:37:27;;;;;;;28.98;13.23;;;;;;;14.20;100.00;100708.19;4991427;28;20086;-46
2023/09/17 02:39:54;;;;;;;42.90;18.05;;;;;;;14.20;100.00;100706.22;4991867;28;20080;-43
2023/09/17 02:42:21;;;;;;;34.33;16.48;;;;;;;14.21;100.00;100701.47;5000828;28;20060;-51
2023/09/17 02:44:48;;;;;;;41.45;18.58;;;;;;;14.22;100.00;100697.47;4988034;28;20039;-44
2023/09/17 02:47:15;;;;;;;40.97;17.75;;;;;;;14.23;100.00;100687.97;4985803;28;20129;-43
2023/09/17 02:49:43;;;;;;;41.83;19.38;;;;;;;14.24;100.00;100695.16;4984970;28;20066;-44
2023/09/17 02:52:10;;;;;;;40.40;18.92;;;;;;;14.23;100.00;100688.78;4990235;28;20409;-44
2023/09/17 02:54:38;;;;;;;43.05;20.17;;;;;;;14.23;100.00;100677.63;4990128;28;20053;-43
2023/09/17 02:57:05;;;;;;;39.60;19.30;;;;;;;14.24;100.00;100684.81;4984565;28;20046;-45
2023/09/17 02:59:34;;;;;;;54.80;20.08;;;;;;;14.25;100.00;100680.84;4986535;28;20411;-49
2023/09/17 03:02:03;;;;;;;51.33;20.23;;;;;;;14.26;100.00;100687.22;5055570;22;20482;-44
2023/09/17 03:04:31;;;;;;;45.80;18.92;;;;;;;14.26;100.00;100676.91;5029641;28;20109;-44
2023/09/17 03:06:58;;;;;;;37.22;18.83;;;;;;;14.27;100.00;100672.13;5029549;28;20057;-43
2023/09/17 03:09:25;;;;;;;47.05;21.42;;;;;;;14.27;100.00;100661.00;5031304;28;20469;-44
2023/09/17 03:11:52;;;;;;;39.15;19.35;;;;;;;14.28;100.00;100665.38;5030130;28;20045;-43
2023/09/17 03:14:21;;;;;;;35.60;17.83;;;;;;;14.27;100.00;100663.78;5021278;28;20045;-44
2023/09/17 03:16:49;;;;;;;41.72;19.23;;;;;;;14.28;100.00;100657.00;5030877;28;20422;-43
2023/09/17 03:19:19;;;;;;;34.60;17.60;;;;;;;14.28;100.00;100660.63;5040287;28;20048;-43
2023/09/17 03:21:46;;;;;;;41.20;19.20;;;;;;;14.28;100.00;100649.47;5033070;28;20056;-44
2023/09/17 03:24:15;;;;;;;41.85;19.40;;;;;;;14.30;100.00;100663.00;5029953;28;20695;-45
2023/09/17 03:26:42;;;;;;;34.17;18.10;;;;;;;14.29;100.00;100653.06;5031314;28;20371;-45
2023/09/17 03:29:10;;;;;;;50.63;19.33;;;;;;;14.31;100.00;100656.28;5031331;28;20037;-45
2023/09/17 03:31:38;;;;;;;42.45;20.23;;;;;;;14.29;100.00;100658.63;5031460;28;20053;-44
2023/09/17 03:34:05;;;;;;;51.95;22.58;;;;;;;14.31;100.00;100656.28;5032977;28;20458;-46
2023/09/17 03:36:35;;;;;;;45.65;21.02;;;;;;;14.32;100.00;100652.34;5036987;28;20045;-43
2023/09/17 03:39:05;;;;;;;40.72;18.02;;;;;;;14.32;100.00;100649.56;5045411;28;20048;-44
2023/09/17 03:41:33;;;;;;;33.22;18.58;;;;;;;14.33;100.00;100648.38;5030412;28;20488;-44
2023/09/17 03:44:03;;;;;;;33.47;16.15;;;;;;;14.33;100.00;100653.94;5031273;28;20052;-44
2023/09/17 03:46:32;;;;;;;37.10;17.80;;;;;;;14.34;100.00;100653.59;5030898;28;20580;-45
2023/09/17 03:49:00;;;;;;;33.55;16.27;;;;;;;14.34;100.00;100648.03;5030115;28;20077;-43
2023/09/17 03:51:28;;;;;;;28.27;15.55;;;;;;;14.35;100.00;100643.25;5029572;28;20038;-44
2023/09/17 03:53:57;;;;;;;26.67;15.15;;;;;;;14.37;100.00;100646.47;5029527;28;20817;-43
2023/09/17 03:56:24;;;;;;;29.73;14.30;;;;;;;14.37;100.00;100638.13;5030031;28;20099;-45
2023/09/17 03:58:52;;;;;;;21.90;12.45;;;;;;;14.36;100.00;100642.06;5028210;28;20525;-43
2023/09/17 04:01:20;;;;;;;20.75;12.52;;;;;;;14.36;100.00;100637.31;5034838;28;20502;-49
2023/09/17 04:03:48;;;;;;;27.38;12.82;;;;;;;14.35;100.00;100632.91;5049251;28;20067;-44
2023/09/17 04:06:18;;;;;;;21.73;12.32;;;;;;;14.34;100.00;100628.53;5050346;28;20091;-44
2023/09/17 04:08:45;;;;;;;21.42;11.23;;;;;;;14.34;100.00;100628.53;5049897;28;20037;-44
2023/09/17 04:11:15;;;;;;;26.05;14.10;;;;;;;14.33;100.00;100620.53;5050334;28;20429;-45
2023/09/17 04:13:44;;;;;;;21.63;13.10;;;;;;;14.34;100.00;100616.56;5049440;28;20048;-44
2023/09/17 04:16:12;;;;;;;25.75;13.73;;;;;;;14.33;100.00;100626.91;5049317;28;20037;-43
2023/09/17 04:18:39;;;;;;;25.40;14.40;;;;;;;14.33;100.00;100621.34;5048866;28;20048;-47
2023/09/17 04:21:08;;;;;;;26.05;14.55;;;;;;;14.34;100.00;100611.00;5049406;28;20069;-45
2023/09/17 04:23:35;;;;;;;28.77;15.07;;;;;;;14.35;100.00;100615.41;5048612;28;20405;-45
2023/09/17 04:26:02;;;;;;;35.05;16.90;;;;;;;14.35;100.00;100609.84;5048727;28;20115;-44
2023/09/17 04:28:30;;;;;;;30.20;15.05;;;;;;;14.35;100.00;100607.84;5049076;28;20053;-43
2023/09/17 04:30:57;;;;;;;25.33;15.10;;;;;;;14.37;100.00;100613.03;5049335;28;20500;-44
2023/09/17 04:33:25;;;;;;;31.10;14.95;;;;;;;14.36;100.00;100609.44;5048761;28;20502;-45
2023/09/17 04:35:56;;;;;;;28.73;13.73;;;;;;;14.37;100.00;100613.84;5049663;28;20580;-45
2023/09/17 04:38:23;;;;;;;25.27;12.60;;;;;;;14.37;100.00;100605.50;5052126;28;20562;-43
2023/09/17 04:40:51;;;;;;;27.77;14.55;;;;;;;14.38;100.00;100600.72;5054582;28;20474;-44
2023/09/17 04:43:20;;;;;;;24.45;13.90;;;;;;;14.39;100.00;100605.13;5051965;28;20049;-44
2023/09/17 04:45:47;;;;;;;20.77;13.48;;;;;;;14.39;100.00;100602.31;5053684;28;20067;-44
2023/09/17 04:48:16;;;;;;;26.35;14.00;;;;;;;14.40;100.00;100598.38;5051879;28;20078;-43
2023/09/17 04:50:44;;;;;;;28.50;13.88;;;;;;;14.40;100.00;100595.59;5052681;28;20573;-44
2023/09/17 04:53:14;;;;;;;26.13;14.77;;;;;;;14.39;100.00;100594.78;5050967;28;20051;-43
2023/09/17 04:55:42;;;;;;;27.25;14.23;;;;;;;14.41;100.00;100594.41;5052365;28;20059;-44
2023/09/17 04:58:09;;;;;;;30.40;15.55;;;;;;;14.40;100.00;100592.81;5051990;28;20057;-44
2023/09/17 05:00:36;;;;;;;32.22;14.40;;;;;;;14.39;100.00;100585.63;5053107;28;20073;-44
2023/09/17 05:03:04;;;;;;;30.10;13.80;;;;;;;14.40;100.00;100578.88;5050878;28;20049;-45
2023/09/17 05:05:31;;;;;;;24.50;12.50;;;;;;;14.38;100.00;100581.22;5051974;28;20037;-46
2023/09/17 05:08:00;;;;;;;28.15;12.80;;;;;;;14.38;100.00;100593.16;5050971;28;20076;-43
2023/09/17 05:10:27;;;;;;;22.48;11.85;;;;;;;14.37;100.00;100583.22;5052570;28;20053;-46
2023/09/17 05:12:56;;;;;;;31.27;13.40;;;;;;;14.37;100.00;100585.19;5050088;28;20494;-46
2023/09/17 05:15:23;;;;;;;25.42;11.88;;;;;;;14.37;100.00;100582.41;5051760;28;20053;-44
2023/09/17 05:17:51;;;;;;;19.92;11.27;;;;;;;14.37;100.00;100587.97;5067186;28;20454;-47
2023/09/17 05:20:21;;;;;;;21.60;12.45;;;;;;;14.37;100.00;100593.56;5049642;28;20037;-43
2023/09/17 05:22:48;;;;;;;18.52;11.75;;;;;;;14.37;100.00;100576.84;5052448;28;20060;-43
2023/09/17 05:25:16;;;;;;;22.20;10.70;;;;;;;14.38;100.00;100584.00;5050623;28;20140;-45
2023/09/17 05:27:43;;;;;;;24.60;11.55;;;;;;;14.37;100.00;100582.41;5051341;28;20478;-44
2023/09/17 05:30:12;;;;;;;33.40;16.42;;;;;;;14.38;100.00;100586.78;5048496;28;20098;-44
2023/09/17 05:32:39;;;;;;;23.80;11.73;;;;;;;14.38;100.00;100590.38;5053810;28;20055;-44
2023/09/17 05:35:07;;;;;;;28.17;11.95;;;;;;;14.37;100.00;100587.97;5052687;28;20102;-42
2023/09/17 05:37:34;;;;;;;22.90;12.82;;;;;;;14.37;100.00;100593.56;5050462;28;20055;-43
2023/09/17 05:40:03;;;;;;;23.52;11.90;;;;;;;14.36;100.00;100575.22;5050449;28;20044;-43
2023/09/17 05:42:31;;;;;;;18.40;11.82;;;;;;;14.34;100.00;100578.41;5041287;28;20053;-44
2023/09/17 05:44:58;;;;;;;19.83;11.18;;;;;;;14.34;100.00;100577.59;5052261;28;20578;-43
2023/09/17 05:47:25;;;;;;;27.30;12.45;;;;;;;14.34;100.00;100580.38;5050914;28;20057;-44
2023/09/17 05:49:55;;;;;;;22.50;12.45;;;;;;;14.34;100.00;100580.38;5047261;28;20041;-44
2023/09/17 05:52:23;;;;;;;24.92;11.60;;;;;;;14.34;100.00;100583.16;5049541;28;20041;-43
2023/09/17 05:54:50;;;;;;;21.83;11.93;;;;;;;14.34;100.00;100578.41;5050300;28;20045;-43
2023/09/17 05:57:17;;;;;;;24.10;11.23;;;;;;;14.34;100.00;100563.66;5049559;28;20073;-44
2023/09/17 05:59:45;;;;;;;21.92;10.93;;;;;;;14.35;100.00;100579.19;5053880;28;20567;-43
2023/09/17 06:02:12;;;;;;;18.27;11.95;;;;;;;14.35;100.00;100576.41;5081725;28;20080;-45
2023/09/17 06:04:40;;;;;;;26.38;12.48;;;;;;;14.35;100.00;100573.63;5052083;28;20048;-45
2023/09/17 06:07:07;;;;;;;23.45;12.65;;;;;;;14.35;100.00;100573.63;5050799;28;20047;-43
2023/09/17 06:09:34;;;;;;;29.75;12.07;;;;;;;14.33;100.00;100575.97;5050910;28;20633;-45
2023/09/17 06:12:02;;;;;;;24.13;12.68;;;;;;;14.32;100.00;100568.81;5051736;28;20044;-44
2023/09/17 06:14:30;;;;;;;29.95;14.00;;;;;;;14.31;100.00;100568.00;5051591;28;20033;-43
2023/09/17 06:16:57;;;;;;;23.02;14.07;;;;;;;14.30;100.00;100577.50;5053002;28;20114;-44
2023/09/17 06:19:27;;;;;;;22.80;12.15;;;;;;;14.29;100.00;100575.91;5052213;28;20076;-43
2023/09/17 06:21:54;;;;;;;22.85;13.02;;;;;;;14.28;100.00;100568.72;5052389;28;20049;-45
2023/09/17 06:24:21;;;;;;;18.88;12.48;;;;;;;14.27;100.00;100581.00;5039903;28;20079;-43
2023/09/17 06:26:50;;;;;;;23.33;12.05;;;;;;;14.24;100.00;100567.88;5052462;28;20544;-44
2023/09/17 06:29:17;;;;;;;24.40;12.45;;;;;;;14.24;100.00;100572.63;5052198;28;20029;-43
2023/09/17 06:31:45;;;;;;;22.40;12.32;;;;;;;14.22;100.00;100569.38;5051767;28;20048;-43
2023/09/17 06:34:13;;;;;;;26.02;13.38;;;;;;;14.21;100.00;100570.59;5052833;28;20093;-43
2023/09/17 06:36:40;;;;;;;22.58;13.05;;;;;;;14.18;100.00;100571.31;5052029;28;20049;-43
2023/09/17 06:39:10;;;;;;;28.50;14.25;;;;;;;14.16;100.00;100570.91;5084470;28;20052;-43
2023/09/17 06:41:37;;;;;;;31.70;13.65;;;;;;;14.15;100.00;100566.50;5051900;28;20049;-43
2023/09/17 06:44:08;;;;;;;33.87;14.97;;;;;;;14.14;100.00;100565.69;5052348;28;20147;-43
2023/09/17 06:46:36;;;;;;;32.63;15.35;;;;;;;14.15;100.00;100570.09;5050308;28;20294;-43
2023/09/17 06:49:04;;;;;;;39.90;15.07;;;;;;;14.15;100.00;100572.06;5045937;28;20506;-46
2023/09/17 06:51:31;;;;;;;33.58;15.98;;;;;;;14.16;100.00;100568.13;5050878;28;20043;-45
2023/09/17 06:53:58;;;;;;;25.15;13.38;;;;;;;14.16;100.00;100571.72;5049490;28;20041;-47
2023/09/17 06:56:29;;;;;;;25.60;14.02;;;;;;;14.15;100.00;100570.09;5050641;28;20044;-44
2023/09/17 06:58:56;;;;;;;25.35;13.25;;;;;;;14.14;100.00;100564.91;5046719;28;20049;-44
2023/09/17 07:01:24;;;;;;;28.60;12.57;;;;;;;14.15;100.00;100566.50;5046648;28;20163;-44
2023/09/17 07:03:52;;;;;;;25.35;13.45;;;;;;;14.14;100.00;100573.28;5050354;28;20398;-43
2023/09/17 07:06:21;;;;;;;39.10;14.68;;;;;;;14.15;100.00;100558.16;5049855;28;20049;-44
2023/09/17 07:08:49;;;;;;;33.25;15.25;;;;;;;14.16;100.00;100554.19;5049020;28;20124;-42
2023/09/17 07:11:16;;;;;;;36.03;12.70;;;;;;;14.15;100.00;100550.59;5050171;28;20045;-42
2023/09/17 07:13:43;;;;;;;35.40;14.73;;;;;;;14.17;100.00;100553.00;5048454;28;20044;-43
2023/09/17 07:16:12;;;;;;;23.35;12.32;;;;;;;14.16;100.00;100551.41;5050566;28;20045;-45
2023/09/17 07:18:39;;;;;;;35.10;14.52;;;;;;;14.16;100.00;100541.09;5049761;28;20057;-50
2023/09/17 07:21:06;;;;;;;24.38;12.82;;;;;;;14.16;100.00;100549.44;5048606;28;20071;-44
2023/09/17 07:23:35;;;;;;;26.45;14.00;;;;;;;14.17;100.00;100533.53;5050395;28;20132;-45
2023/09/17 07:26:03;;;;;;;31.30;13.73;;;;;;;14.18;100.00;100540.69;5049937;28;20090;-44
2023/09/17 07:28:31;;;;;;;33.60;14.85;;;;;;;14.19;100.00;100528.41;5047488;28;20041;-44
2023/09/17 07:30:58;;;;;;;33.55;14.30;;;;;;;14.19;100.00;100536.75;5081620;28;20048;-42
2023/09/17 07:33:25;;;;;;;37.80;15.18;;;;;;;14.21;100.00;100534.38;5048528;28;20057;-45
2023/09/17 07:35:53;;;;;;;29.95;14.63;;;;;;;14.23;100.00;100526.47;5049391;28;20132;-47
2023/09/17 07:38:20;;;;;;;26.45;15.68;;;;;;;14.25;100.00;100521.31;5049104;28;20037;-45
2023/09/17 07:40:48;;;;;;;29.15;16.33;;;;;;;14.26;100.00;100532.09;5048428;28;20102;-42
2023/09/17 07:43:15;;;;;;;24.90;14.25;;;;;;;14.29;100.00;100536.09;5048452;28;20045;-45
2023/09/17 07:45:42;;;;;;;37.22;16.30;;;;;;;14.31;100.00;100534.59;5048870;28;20071;-42
2023/09/17 07:48:10;;;;;;;31.77;15.80;;;;;;;14.32;100.00;100538.19;5048256;28;20036;-42
2023/09/17 07:50:37;;;;;;;34.13;14.13;;;;;;;14.34;100.00;100533.84;5056957;28;20041;-44
2023/09/17 07:53:04;;;;;;;30.75;15.05;;;;;;;14.36;100.00;100536.22;5053427;28;20067;-43
2023/09/17 07:55:31;;;;;;;30.40;15.07;;;;;;;14.37;100.00;100532.28;5060020;28;20848;-43
2023/09/17 07:57:59;;;;;;;32.15;15.73;;;;;;;14.39;100.00;100530.72;5050944;28;20041;-42
2023/09/17 08:00:26;;;;;;;31.02;16.05;;;;;;;14.42;100.00;100534.75;5051073;28;20059;-44
2023/09/17 08:02:53;;;;;;;37.20;17.65;;;;;;;14.45;100.00;100534.00;5047409;28;20060;-44
2023/09/17 08:05:21;;;;;;;36.70;16.05;;;;;;;14.50;100.00;100528.91;5042436;28;20033;-44
2023/09/17 08:07:48;;;;;;;32.97;15.27;;;;;;;14.54;100.00;100535.31;5048480;28;20049;-43
2023/09/17 08:10:15;;;;;;;37.60;16.40;;;;;;;14.59;100.00;100529.41;5048506;28;20041;-43
2023/09/17 08:12:43;;;;;;;33.40;15.07;;;;;;;14.67;100.00;100519.16;5052702;28;20045;-43
2023/09/17 08:15:11;;;;;;;24.23;14.25;;;;;;;14.73;100.00;100517.66;5036449;28;20038;-45
2023/09/17 08:17:38;;;;;;;24.65;13.75;;;;;;;14.80;100.00;100523.31;5069989;28;20045;-44
2023/09/17 08:20:09;;;;;;;26.42;15.85;;;;;;;14.88;100.00;100511.06;5057390;28;20445;-43
2023/09/17 08:22:37;;;;;;;35.05;16.20;;;;;;;14.94;100.00;100514.31;5055616;28;20492;-43
2023/09/17 08:25:08;;;;;;;26.88;14.43;;;;;;;14.96;100.00;100509.97;5057430;28;20347;-43
2023/09/17 08:27:36;;;;;;;34.22;16.73;;;;;;;14.97;100.00;100517.16;5057446;28;20037;-44
2023/09/17 08:30:11;;;;;;;24.15;13.27;;;;;;;15.03;100.00;100510.06;5056800;28;20511;-43
2023/09/17 08:32:43;;;;;;;33.15;15.20;;;;;;;15.07;100.00;100512.88;5057326;28;20037;-43
2023/09/17 08:35:14;;;;;;;31.35;14.98;;;;;;;15.10;100.00;100509.31;5054622;28;20041;-44
2023/09/17 08:37:49;;;;;;;25.75;13.90;;;;;;;15.14;100.00;100510.97;5053590;28;20126;-43
2023/09/17 08:40:19;;;;;;;28.77;14.93;;;;;;;15.17;100.00;100510.22;5056938;28;20438;-44
2023/09/17 08:42:48;;;;;;;24.85;15.02;;;;;;;15.18;100.00;100509.03;5053336;28;20081;-46
2023/09/17 08:45:17;;;;;;;21.98;13.48;;;;;;;15.21;100.00;100521.41;5053146;28;20045;-43
2023/09/17 08:47:44;;;;;;;35.45;15.70;;;;;;;15.19;100.00;100524.59;5056710;28;20037;-44
2023/09/17 08:50:12;;;;;;;25.05;14.43;;;;;;;15.18;100.00;100522.16;5056971;28;20041;-43
2023/09/17 08:52:41;;;;;;;27.25;15.95;;;;;;;15.13;100.00;100514.97;5056731;28;20497;-42
2023/09/17 08:55:14;;;;;;;34.22;16.13;;;;;;;15.12;100.00;100516.13;5056973;28;20141;-43
2023/09/17 08:57:46;;;;;;;31.95;15.75;;;;;;;15.09;100.00;100500.16;5057381;28;20055;-43
2023/09/17 09:00:17;;;;;;;33.50;15.73;;;;;;;15.08;100.00;100497.75;5057017;28;20132;-44
2023/09/17 09:02:54;;;;;;;26.30;13.57;;;;;;;15.05;100.00;100499.34;5056063;28;20399;-44
2023/09/17 09:05:27;;;;;;;24.65;14.07;;;;;;;15.03;100.00;100498.91;5082351;28;20056;-42
2023/09/17 09:07:56;;;;;;;30.45;14.70;;;;;;;15.02;100.00;100486.16;5056724;28;20052;-45
2023/09/17 09:10:24;;;;;;;28.83;13.85;;;;;;;15.02;100.00;100486.16;5054379;28;20132;-45
2023/09/17 09:12:52;;;;;;;40.20;18.50;;;;;;;15.06;100.00;100484.19;5055244;28;20037;-44
2023/09/17 09:15:19;;;;;;;32.53;15.18;;;;;;;15.16;100.00;100469.59;5055840;28;20395;-45
2023/09/17 09:17:47;;;;;;;25.63;17.08;;;;;;;15.31;100.00;100466.91;5055144;28;20410;-44
2023/09/17 09:20:16;;;;;;;21.42;13.25;;;;;;;15.46;100.00;100475.06;5056446;28;20049;-48
2023/09/17 09:22:45;;;;;;;20.73;13.38;;;;;;;15.53;100.00;100472.34;5051998;28;20052;-43
2023/09/17 09:25:18;;;;;;;27.30;14.55;;;;;;;15.61;100.00;100478.78;5052424;28;20076;-47
2023/09/17 09:27:46;;;;;;;21.77;13.20;;;;;;;15.65;100.00;100477.63;5053318;28;20122;-48
2023/09/17 09:30:17;;;;;;;32.33;14.88;;;;;;;15.69;100.00;100483.25;5049730;28;20045;-43
2023/09/17 09:32:45;;;;;;;22.15;12.90;;;;;;;15.69;100.00;100484.06;5052282;28;20442;-44
2023/09/17 09:35:13;;;;;;;18.77;12.38;;;;;;;15.70;100.00;100484.88;5050738;28;20447;-44
2023/09/17 09:37:41;;;;;;;26.88;12.63;;;;;;;15.68;100.00;100482.44;5052528;28;20106;-43
2023/09/17 09:40:09;;;;;;;21.15;13.30;;;;;;;15.66;100.00;100489.59;5051578;28;20487;-45
2023/09/17 09:42:38;;;;;;;21.40;12.98;;;;;;;15.62;100.00;100472.03;5051724;28;20465;-43
2023/09/17 09:45:12;;;;;;;21.27;12.38;;;;;;;15.60;100.00;100469.63;5045773;28;20140;-44
2023/09/17 09:47:40;;;;;;;22.38;13.65;;;;;;;15.58;100.00;100468.41;5049040;28;20099;-43
2023/09/17 09:50:23;;;;;;;18.05;12.93;;;;;;;15.60;100.00;100463.22;5050581;28;20041;-44
2023/09/17 09:52:50;;;;;;;21.80;13.20;;;;;;;15.64;100.00;100455.69;5051019;28;20073;-43
2023/09/17 09:55:27;;;;;;;24.25;13.38;;;;;;;15.65;100.00;100463.69;5050753;28;20048;-42
2023/09/17 09:57:55;;;;;;;19.58;11.98;;;;;;;15.64;100.00;100458.50;5049557;28;20048;-47
2023/09/17 10:00:26;;;;;;;24.55;14.38;;;;;;;15.68;100.00;100462.91;5048957;28;20045;-47
2023/09/17 10:02:54;;;;;;;23.73;12.88;;;;;;;15.70;100.00;100459.75;5050906;28;20049;-42
2023/09/17 10:05:33;;;;;;;22.80;14.65;;;;;;;15.74;100.00;100449.41;5050561;28;20080;-45
2023/09/17 10:08:02;;;;;;;22.33;12.98;;;;;;;15.77;100.00;100451.41;5049138;28;20490;-43
2023/09/17 10:10:30;;;;;;;15.88;12.63;;;;;;;15.78;100.00;100439.84;5050069;28;20525;-45
2023/09/17 10:12:59;;;;;;;23.48;12.32;;;;;;;15.79;100.00;100440.66;5053196;28;20383;-44
2023/09/17 10:15:27;;;;;;;19.70;12.45;;;;;;;15.80;100.00;100447.84;5051675;28;20068;-46
2023/09/17 10:17:56;;;;;;;18.40;12.45;;;;;;;15.80;100.00;100443.09;5048388;28;20505;-43
2023/09/17 10:20:23;;;;;;;19.50;11.77;;;;;;;15.79;100.00;100440.66;5040693;28;20483;-43
2023/09/17 10:22:54;;;;;;;17.88;12.02;;;;;;;15.79;100.00;100426.69;5039356;28;20178;-45
2023/09/17 10:25:23;;;;;;;19.13;10.85;;;;;;;15.83;100.00;100424.75;5050031;28;20122;-45
2023/09/17 10:27:52;;;;;;;15.90;10.30;;;;;;;15.84;100.00;100415.97;5050814;28;20049;-44
2023/09/17 10:30:20;;;;;;;17.60;12.32;;;;;;;15.87;100.00;100408.81;5050325;28;20038;-44
2023/09/17 10:32:50;;;;;;;19.88;11.77;;;;;;;15.86;100.00;100415.56;5050145;28;20040;-45
2023/09/17 10:35:18;;;;;;;21.02;12.07;;;;;;;15.86;100.00;100412.00;5048584;28;20044;-44
2023/09/17 10:37:46;;;;;;;16.67;11.55;;;;;;;15.85;100.00;100400.03;5050459;28;20049;-44
2023/09/17 10:40:15;;;;;;;13.48;10.45;;;;;;;15.83;100.00;100408.00;5050387;28;20041;-44
2023/09/17 10:42:44;;;;;;;18.52;10.80;;;;;;;15.79;100.00;100405.19;5051468;28;20053;-44
2023/09/17 10:45:13;;;;;;;16.83;10.05;;;;;;;15.74;100.00;100404.75;5049848;28;20081;-44
2023/09/17 10:47:41;;;;;;;16.73;12.95;;;;;;;15.69;100.00;100402.31;5049297;28;20067;-43
2023/09/17 10:50:10;;;;;;;13.43;10.48;;;;;;;15.64;100.00;100392.31;5050467;28;20033;-44
2023/09/17 10:52:38;;;;;;;23.20;12.75;;;;;;;15.59;100.00;100389.91;5047419;28;20516;-46
2023/09/17 10:55:08;;;;;;;21.02;13.88;;;;;;;15.58;100.00;100393.06;5050869;28;20418;-45
2023/09/17 10:57:40;;;;;;;23.15;13.40;;;;;;;15.54;100.00;100397.81;5048044;28;20041;-45
2023/09/17 11:00:13;;;;;;;20.10;14.40;;;;;;;15.51;100.00;100390.22;5051960;28;20053;-43
2023/09/17 11:02:46;;;;;;;25.92;15.25;;;;;;;15.47;100.00;100392.97;5045146;28;20056;-43
2023/09/17 11:05:18;;;;;;;23.42;14.43;;;;;;;15.48;100.00;100391.00;5046692;28;20042;-43
2023/09/17 11:07:46;;;;;;;27.33;14.43;;;;;;;15.49;100.00;100387.03;5049160;28;20048;-44
2023/09/17 11:10:14;;;;;;;24.88;14.65;;;;;;;15.51;100.00;100388.25;5050933;28;20045;-44